This is the latest recevied weather packets stored in our database for station/object N0KTA-2. If no packets are shown the sender has not sent any weather packets the latest 1 day(s).
| Time | Temp. | Humidity | Pressure | Rain* | Wind** | Luminosity | Snow |
|---|---|---|---|---|---|---|---|
| 1778053166 | 7.78° C | 79% | 1012.9 hPa | 0 mm | - | - | - |
| 1778052565 | 7.78° C | 80% | 1012.3 hPa | 0 mm | - | - | - |
| 1778050165 | 8.89° C | 76% | 1012.2 hPa | 0 mm | - | - | - |
| 1778049566 | 9.44° C | 73% | 1012.6 hPa | 0 mm | - | - | - |
| 1778044165 | 10.56° C | 69% | 1011.5 hPa | 0 mm | - | - | - |
| 1778043566 | 10.56° C | 69% | 1011.2 hPa | 0 mm | - | - | - |
| 1778042965 | 10.56° C | 71% | 1011.5 hPa | 0 mm | - | - | - |
| 1778042366 | 10.56° C | 71% | 1010.9 hPa | 0 mm | - | - | - |
| 1778041765 | 10.56° C | 71% | 1011 hPa | 0 mm | - | - | - |
| 1778041166 | 10.56° C | 74% | 1011.2 hPa | 0 mm | - | - | - |
| 1778040565 | 10.56° C | 75% | 1011.2 hPa | 0.25 mm | - | - | - |
| 1778039966 | 10° C | 76% | 1011.5 hPa | 0.25 mm | - | - | - |
| 1778039365 | 10° C | 76% | 1011.7 hPa | 0.25 mm | - | - | - |
| 1778038766 | 10° C | 76% | 1011.6 hPa | 0.25 mm | - | - | - |
| 1778038165 | 10° C | 77% | 1011.7 hPa | 0.25 mm | - | - | - |
| 1778037565 | 10° C | 78% | 1011.4 hPa | 0.51 mm | - | - | - |
| 1778036365 | 10° C | 78% | 1011.2 hPa | 0.25 mm | - | - | - |
| 1778035766 | 10° C | 78% | 1011.1 hPa | 0.25 mm | - | - | - |
| 1778035165 | 10° C | 79% | 1011.1 hPa | 0.25 mm | - | - | - |
| 1778034565 | 10.56° C | 79% | 1010.9 hPa | 0.25 mm | - | - | - |
| 1778033965 | 10.56° C | 78% | 1010.7 hPa | 0 mm | - | - | - |
| 1778033364 | 10.56° C | 76% | 1010.5 hPa | 0 mm | - | - | - |
| 1778032164 | 11.11° C | 75% | 1010.2 hPa | 0 mm | - | - | - |
| 1778031565 | 11.11° C | 73% | 1009.9 hPa | 0 mm | - | - | - |
| 1778030964 | 11.11° C | 73% | 1009.9 hPa | 0 mm | - | - | - |
* Rain latest hour (hover to see other rain measurements)
** Current wind speed in m/s (hover to see current wind gust speed)